Time;durP1;ratioP1;P1;durP2;ratioP2;P2;SDS_P1;SDS_P2;PMS_P1;PMS_P2;Temp;Humidity;BMP_temperature;BMP_pressure;BME280_temperature;BME280_humidity;BME280_pressure;Samples;Min_cycle;Max_cycle;Signal;HPM_P1;HPM_P2
2024/04/04 00:00:19;;;;;;;17.08;3.20;;;;;;;-146.27;77.75;43638.22;5093040;28;20111;-74
2024/04/04 00:02:44;;;;;;;17.63;2.85;;;;;;;-146.27;78.10;43697.91;5092187;28;20107;-72
2024/04/04 00:05:11;;;;;;;14.15;2.47;;;;;;;-146.27;78.41;43727.75;5091667;28;20157;-74
2024/04/04 00:07:37;;;;;;;18.85;2.20;;;;;;;-146.27;78.53;43682.00;5094062;28;20040;-75
2024/04/04 00:10:02;;;;;;;15.65;2.22;;;;;;;-146.27;78.54;43707.84;5089668;28;20050;-73
2024/04/04 00:12:28;;;;;;;11.00;1.90;;;;;;;-146.27;78.74;43709.84;5103457;28;20028;-73
2024/04/04 00:14:54;;;;;;;13.85;2.70;;;;;;;-146.27;77.46;43705.84;5108990;28;20028;-73
2024/04/04 00:17:19;;;;;;;13.00;2.22;;;;;;;-146.27;78.40;43787.44;5096178;28;20016;-74
2024/04/04 00:19:45;;;;;;;12.57;2.15;;;;;;;-146.27;78.24;43727.75;5099987;28;20581;-73
2024/04/04 00:22:11;;;;;;;11.43;1.65;;;;;;;-146.27;77.62;43721.78;5087365;28;20020;-73
2024/04/04 00:24:37;;;;;;;9.23;2.22;;;;;;;-146.27;77.81;43769.53;5075375;28;20042;-72
2024/04/04 00:27:02;;;;;;;20.15;2.60;;;;;;;-146.27;77.41;43765.53;5089878;28;20032;-75
2024/04/04 00:29:28;;;;;;;12.93;1.90;;;;;;;-146.27;76.99;43767.53;5100142;28;20035;-75
2024/04/04 00:31:53;;;;;;;12.05;1.95;;;;;;;-146.27;76.63;43735.69;5086755;28;20028;-74
2024/04/04 00:34:22;;;;;;;21.10;3.20;;;;;;;-146.27;76.56;43757.59;5091893;28;20024;-74
2024/04/04 00:36:47;;;;;;;14.48;1.88;;;;;;;-146.27;76.71;43753.59;5077719;28;20032;-74
2024/04/04 00:39:13;;;;;;;18.88;1.90;;;;;;;-146.27;76.60;43765.53;5082755;28;20712;-73
2024/04/04 00:41:38;;;;;;;14.95;1.70;;;;;;;-146.27;76.77;43819.25;5080372;28;20616;-74
2024/04/04 00:44:04;;;;;;;13.32;1.67;;;;;;;-146.27;76.71;43797.38;5091620;28;20059;-75
2024/04/04 00:46:30;;;;;;;12.63;1.85;;;;;;;-146.27;76.77;43870.97;5082051;28;20756;-74
2024/04/04 00:48:58;;;;;;;13.75;1.80;;;;;;;-146.27;76.14;43777.47;5091733;28;20070;-74
2024/04/04 00:51:24;;;;;;;16.90;2.22;;;;;;;-146.27;75.61;43817.25;5091469;28;20111;-74
2024/04/04 00:53:49;;;;;;;7.38;1.33;;;;;;;-146.27;75.84;43890.88;5091453;28;20026;-74
2024/04/04 00:56:15;;;;;;;11.35;1.98;;;;;;;-146.27;75.45;43831.19;5089094;28;20081;-73
2024/04/04 00:58:40;;;;;;;13.02;1.45;;;;;;;-146.27;76.19;43799.34;5071237;28;20032;-74
2024/04/04 01:01:06;;;;;;;10.45;1.55;;;;;;;-146.27;78.55;43757.59;5084021;28;20102;-74
2024/04/04 01:03:31;;;;;;;14.48;1.42;;;;;;;-146.27;79.39;43765.53;5085693;28;20025;-74
2024/04/04 01:05:57;;;;;;;7.18;1.23;;;;;;;-146.27;79.60;43658.13;5080373;28;20056;-72
2024/04/04 01:08:22;;;;;;;11.07;1.60;;;;;;;-146.27;80.98;43624.28;5075178;28;20055;-73
2024/04/04 01:10:48;;;;;;;6.82;1.48;;;;;;;-146.27;81.09;43526.81;5076583;28;20106;-75
2024/04/04 01:13:14;;;;;;;8.52;1.48;;;;;;;-146.27;80.54;43477.09;5077364;28;20495;-75
2024/04/04 01:15:40;;;;;;;11.05;2.00;;;;;;;-146.27;81.33;43498.97;5087587;28;20044;-69
2024/04/04 01:18:05;;;;;;;11.85;1.67;;;;;;;-146.27;81.61;43479.06;5077468;28;20094;-69
2024/04/04 01:20:31;;;;;;;9.63;1.80;;;;;;;-146.27;81.33;43437.31;5077472;28;20062;-69
2024/04/04 01:22:56;;;;;;;19.70;1.73;;;;;;;-146.27;81.60;43443.28;5076350;28;20032;-70
2024/04/04 01:25:21;;;;;;;10.63;1.48;;;;;;;-146.27;81.60;43419.41;5077983;28;20424;-69
2024/04/04 01:27:49;;;;;;;9.27;1.20;;;;;;;-146.27;80.96;43419.41;5077665;28;20052;-69
2024/04/04 01:30:18;;;;;;;11.93;2.05;;;;;;;-146.27;80.73;43431.34;5076891;28;20020;-70
2024/04/04 01:32:43;;;;;;;10.38;1.50;;;;;;;-146.27;80.35;43427.34;5079847;28;20032;-71
2024/04/04 01:35:08;;;;;;;13.88;1.80;;;;;;;-146.27;80.06;43419.41;5075652;28;20036;-67
2024/04/04 01:37:34;;;;;;;10.15;1.60;;;;;;;-146.27;80.34;43411.44;5082568;28;20044;-70
2024/04/04 01:40:00;;;;;;;9.80;1.50;;;;;;;-146.27;80.04;43435.31;5073435;28;20028;-70
2024/04/04 01:42:25;;;;;;;19.00;2.22;;;;;;;-146.27;79.78;43407.47;5089024;28;20024;-69
2024/04/04 01:44:51;;;;;;;14.05;2.00;;;;;;;-146.27;79.51;43425.38;5079308;28;20025;-69
2024/04/04 01:47:16;;;;;;;8.88;1.52;;;;;;;-146.27;79.76;43439.28;5077178;28;20038;-71
2024/04/04 01:49:41;;;;;;;12.13;1.60;;;;;;;-146.27;80.29;43487.03;5079510;28;20028;-70
2024/04/04 01:52:07;;;;;;;7.68;2.10;;;;;;;-146.27;79.65;43435.31;5082254;28;20165;-69
2024/04/04 01:54:32;;;;;;;12.75;2.13;;;;;;;-146.27;79.54;43407.47;5084996;28;20024;-70
2024/04/04 01:56:57;;;;;;;10.95;1.20;;;;;;;-146.27;79.29;43391.56;5072380;28;20020;-71
2024/04/04 01:59:23;;;;;;;9.98;1.80;;;;;;;-146.27;79.06;43413.44;5075077;28;20099;-67
2024/04/04 02:01:48;;;;;;;10.65;1.50;;;;;;;-146.27;79.29;43437.31;5085014;28;20123;-71
2024/04/04 02:04:13;;;;;;;10.32;1.77;;;;;;;-146.27;79.39;43441.28;5090354;28;20024;-69
2024/04/04 02:06:39;;;;;;;13.85;2.47;;;;;;;-146.27;79.36;43405.47;5099130;28;20085;-70
2024/04/04 02:09:04;;;;;;;4.90;1.73;;;;;;;-146.27;79.20;43393.53;5105001;28;20032;-68
2024/04/04 02:11:29;;;;;;;3.67;1.30;;;;;;;-146.27;79.28;43375.63;5095884;28;20032;-71
2024/04/04 02:13:56;;;;;;;13.52;1.30;;;;;;;-146.27;79.44;43371.66;5108334;28;20257;-70
2024/04/04 02:16:23;;;;;;;4.82;1.15;;;;;;;-146.27;80.08;43379.63;5090786;28;20110;-69
2024/04/04 02:18:52;;;;;;;9.43;1.52;;;;;;;-146.27;80.45;43371.66;5100523;28;20632;-68
2024/04/04 02:21:17;;;;;;;11.25;1.45;;;;;;;-146.27;80.89;43335.84;5094163;28;20047;-69
2024/04/04 02:23:43;;;;;;;6.10;1.92;;;;;;;-146.27;81.24;43339.84;5094762;28;20070;-69
2024/04/04 02:26:08;;;;;;;8.15;1.83;;;;;;;-146.27;82.14;43325.91;5093420;28;20049;-69
2024/04/04 02:28:34;;;;;;;7.78;1.30;;;;;;;-146.27;81.75;43300.06;5089861;28;20395;-70
2024/04/04 02:31:00;;;;;;;10.50;2.20;;;;;;;-146.27;82.33;43282.16;5080271;28;20047;-69
2024/04/04 02:33:25;;;;;;;9.68;1.77;;;;;;;-146.27;81.95;43254.31;5088819;28;20127;-70
2024/04/04 02:35:53;;;;;;;11.30;1.80;;;;;;;-146.27;82.71;43270.22;5088606;28;20035;-68
2024/04/04 02:38:18;;;;;;;14.45;1.77;;;;;;;-146.27;82.45;43242.38;5073489;28;20373;-71
2024/04/04 02:40:43;;;;;;;15.75;1.60;;;;;;;-146.27;82.88;43212.53;5093256;28;20027;-71
2024/04/04 02:43:09;;;;;;;6.30;1.60;;;;;;;-146.27;82.47;43176.72;5086686;28;20539;-69
2024/04/04 02:45:35;;;;;;;15.57;2.03;;;;;;;-146.27;82.82;43204.56;5091051;28;20028;-68
2024/04/04 02:48:01;;;;;;;13.18;2.20;;;;;;;-146.27;82.95;43142.91;5088591;28;20026;-70
2024/04/04 02:50:27;;;;;;;8.77;1.92;;;;;;;-146.27;83.88;43158.81;5061384;28;20064;-69
2024/04/04 02:52:53;;;;;;;9.50;2.50;;;;;;;-146.27;83.16;43095.16;5092656;28;20077;-67
2024/04/04 02:55:18;;;;;;;12.00;2.42;;;;;;;-146.27;83.23;43132.97;5092756;28;20426;-70
2024/04/04 02:57:44;;;;;;;6.90;2.22;;;;;;;-146.27;84.93;43158.81;5092179;28;20024;-69
2024/04/04 03:00:10;;;;;;;9.00;2.10;;;;;;;-146.27;84.28;43093.19;5078988;28;20107;-68
2024/04/04 03:02:36;;;;;;;7.30;2.13;;;;;;;-146.27;84.47;43065.34;5092658;28;20723;-70
2024/04/04 03:05:01;;;;;;;8.18;2.20;;;;;;;-146.27;84.07;43033.50;5091711;28;20106;-69
2024/04/04 03:07:27;;;;;;;10.13;2.33;;;;;;;-146.27;84.22;42989.75;5078732;28;20056;-69
2024/04/04 03:09:52;;;;;;;11.65;2.65;;;;;;;-146.27;84.88;42973.84;5086154;28;20016;-70
2024/04/04 03:12:18;;;;;;;10.98;3.40;;;;;;;-146.27;84.72;42914.16;5090761;28;20403;-70
2024/04/04 03:14:43;;;;;;;12.18;3.40;;;;;;;-146.27;85.11;42930.09;5091002;28;20024;-69
2024/04/04 03:17:08;;;;;;;8.75;3.38;;;;;;;-146.27;84.87;42908.19;5084472;28;20480;-70
2024/04/04 03:19:34;;;;;;;10.23;3.15;;;;;;;-146.27;85.26;42894.28;5091749;28;20046;-70
2024/04/04 03:21:59;;;;;;;10.15;2.80;;;;;;;-146.27;85.34;42878.38;5095602;28;20020;-69
2024/04/04 03:24:24;;;;;;;8.43;3.05;;;;;;;-146.27;85.64;42846.53;5090469;28;20032;-70
2024/04/04 03:26:50;;;;;;;11.43;3.38;;;;;;;-146.27;85.68;42838.59;5099374;28;20048;-67
2024/04/04 03:29:15;;;;;;;8.32;3.00;;;;;;;-146.27;85.63;42820.69;5072314;28;20526;-70
2024/04/04 03:31:41;;;;;;;13.18;3.60;;;;;;;-146.27;86.64;42840.56;5070544;28;20645;-69
2024/04/04 03:34:06;;;;;;;10.45;3.15;;;;;;;-146.27;86.78;42727.22;5090310;28;20066;-68
2024/04/04 03:36:31;;;;;;;10.98;3.65;;;;;;;-146.27;87.37;42671.53;5091255;28;20028;-69
2024/04/04 03:38:57;;;;;;;11.57;4.38;;;;;;;-146.27;87.76;42617.81;5087378;28;20020;-69
2024/04/04 03:41:22;;;;;;;15.95;4.03;;;;;;;-146.27;87.69;42562.13;5091187;28;20028;-69
2024/04/04 03:43:48;;;;;;;9.50;4.45;;;;;;;-146.27;87.81;42524.34;5072896;28;20029;-68
2024/04/04 03:46:13;;;;;;;9.20;4.50;;;;;;;-146.27;88.21;42530.31;5074769;28;20108;-70
2024/04/04 03:48:38;;;;;;;9.60;4.80;;;;;;;-146.27;88.83;42470.66;5082649;28;20051;-69
2024/04/04 03:51:04;;;;;;;11.13;5.05;;;;;;;-146.27;88.38;42436.84;5078745;28;22129;-70
2024/04/04 03:53:29;;;;;;;10.95;5.47;;;;;;;-146.27;88.57;42420.94;5074377;28;20040;-69
2024/04/04 03:55:55;;;;;;;18.88;6.32;;;;;;;-146.27;88.63;42409.00;5083411;28;20509;-68
2024/04/04 03:58:20;;;;;;;14.15;6.13;;;;;;;-146.27;88.64;42387.13;5071157;28;20409;-69
2024/04/04 04:00:48;;;;;;;17.17;6.80;;;;;;;-146.27;89.00;42351.34;5072524;28;20024;-68
2024/04/04 04:03:14;;;;;;;21.13;6.85;;;;;;;-146.27;89.28;42333.44;5081745;28;20016;-69
2024/04/04 04:05:39;;;;;;;12.80;5.70;;;;;;;-146.27;89.41;42321.50;5090809;28;20031;-69
2024/04/04 04:08:05;;;;;;;13.43;5.68;;;;;;;-146.27;89.75;42291.66;5077419;28;20051;-68
2024/04/04 04:10:31;;;;;;;22.33;6.43;;;;;;;-146.27;89.74;42247.91;5086305;28;20024;-67
2024/04/04 04:12:57;;;;;;;11.30;5.72;;;;;;;-146.27;89.90;42253.88;5091039;28;20051;-69
2024/04/04 04:15:23;;;;;;;13.43;6.13;;;;;;;-146.27;89.96;42232.00;5090500;28;20027;-69
2024/04/04 04:17:48;;;;;;;11.73;5.95;;;;;;;-146.27;90.34;42202.19;5075889;28;20031;-69
2024/04/04 04:22:58;;;;;;;15.05;6.05;;;;;;;-146.27;90.44;42142.53;5085486;28;20043;-69
2024/04/04 04:25:24;;;;;;;12.82;5.72;;;;;;;-146.27;90.34;42138.53;5091387;28;20031;-69
2024/04/04 04:27:49;;;;;;;14.25;7.40;;;;;;;-146.27;90.52;42098.78;5103438;28;20503;-70
2024/04/04 04:30:15;;;;;;;13.02;6.13;;;;;;;-146.27;90.19;42096.78;5109510;28;20027;-69
2024/04/04 04:32:41;;;;;;;18.75;7.05;;;;;;;-146.27;90.64;42122.63;5084220;28;20159;-68
2024/04/04 04:35:07;;;;;;;15.05;6.95;;;;;;;-146.27;90.63;42047.06;5096824;28;20074;-69
2024/04/04 04:37:33;;;;;;;12.48;7.47;;;;;;;-146.27;90.81;42108.72;5098703;28;20639;-69
2024/04/04 04:39:59;;;;;;;13.93;6.93;;;;;;;-146.27;90.68;42074.91;5108187;28;20051;-69
2024/04/04 04:42:24;;;;;;;15.90;7.63;;;;;;;-146.27;90.58;42023.22;5074701;28;20051;-69
2024/04/04 04:44:50;;;;;;;14.35;7.53;;;;;;;-146.27;90.91;42066.97;5083366;28;20146;-75
2024/04/04 04:47:15;;;;;;;15.30;7.82;;;;;;;-146.27;90.87;42015.25;5093859;28;20085;-74
2024/04/04 04:49:40;;;;;;;12.13;7.50;;;;;;;-146.27;90.92;42007.31;5092719;28;20032;-74
2024/04/04 04:52:06;;;;;;;15.70;7.43;;;;;;;-146.27;91.45;41983.44;5078922;28;20032;-74
2024/04/04 04:54:31;;;;;;;17.45;9.60;;;;;;;-146.27;91.26;41963.56;5080400;28;20024;-74
2024/04/04 04:56:58;;;;;;;17.85;8.38;;;;;;;-146.27;91.10;41939.69;5079856;28;20031;-75
2024/04/04 04:59:23;;;;;;;21.75;9.27;;;;;;;-146.27;91.63;41919.81;5085834;28;20026;-75
2024/04/04 05:01:48;;;;;;;17.58;9.43;;;;;;;-146.27;91.79;41870.09;5085852;28;20107;-74
2024/04/04 05:04:14;;;;;;;17.20;8.85;;;;;;;-146.27;91.65;41876.06;5079859;28;20046;-74
2024/04/04 05:06:39;;;;;;;12.40;8.40;;;;;;;-146.27;92.66;41860.16;5090172;28;20024;-74
2024/04/04 05:09:04;;;;;;;12.60;8.60;;;;;;;-146.27;92.52;41826.34;5090094;28;20035;-76
2024/04/04 05:11:30;;;;;;;12.85;7.82;;;;;;;-146.27;93.46;41766.69;5089949;28;20027;-73
2024/04/04 05:13:55;;;;;;;15.57;7.93;;;;;;;-146.27;93.05;41792.56;5089640;28;20563;-73
2024/04/04 05:16:20;;;;;;;13.60;7.68;;;;;;;-146.27;94.13;41728.91;5091550;28;20523;-73
2024/04/04 05:18:46;;;;;;;13.63;6.82;;;;;;;-146.27;93.30;41693.13;5084657;28;20040;-73
2024/04/04 05:21:11;;;;;;;13.48;7.05;;;;;;;-146.27;93.97;41661.31;5080813;28;20020;-72
2024/04/04 05:23:36;;;;;;;8.20;5.50;;;;;;;-146.27;93.99;41685.19;5082863;28;20055;-73
2024/04/04 05:26:02;;;;;;;11.45;5.78;;;;;;;-146.27;93.74;41657.34;5087359;28;20044;-73
2024/04/04 05:28:30;;;;;;;11.48;5.80;;;;;;;-146.27;93.58;41627.50;5088403;28;20092;-73
2024/04/04 05:30:56;;;;;;;9.35;5.32;;;;;;;-146.27;94.32;41645.41;5099899;28;20107;-72
2024/04/04 05:33:21;;;;;;;8.85;5.63;;;;;;;-146.27;94.83;41635.47;5086297;28;20131;-72
2024/04/04 05:35:47;;;;;;;8.68;4.60;;;;;;;-146.27;95.39;41615.59;5101029;28;20703;-73
2024/04/04 05:38:13;;;;;;;6.75;4.40;;;;;;;-146.27;94.48;41549.97;5093826;28;20389;-73
2024/04/04 05:40:39;;;;;;;7.47;4.78;;;;;;;-146.27;94.88;41561.91;5083977;28;20028;-73
2024/04/04 05:43:05;;;;;;;6.90;4.07;;;;;;;-146.27;94.39;41534.06;5089048;28;20032;-73
2024/04/04 05:45:30;;;;;;;8.38;4.03;;;;;;;-146.27;94.27;41520.16;5087699;28;20399;-73
2024/04/04 05:47:56;;;;;;;6.13;3.75;;;;;;;-146.27;95.58;41585.75;5077871;28;20043;-72
2024/04/04 05:50:22;;;;;;;6.95;4.03;;;;;;;-146.27;95.42;41581.78;5075628;28;20102;-74
2024/04/04 05:52:47;;;;;;;11.60;4.43;;;;;;;-146.27;95.63;41538.03;5095825;28;20107;-75
2024/04/04 05:55:12;;;;;;;6.90;3.58;;;;;;;-146.27;95.51;41518.16;5106159;28;20069;-66
2024/04/04 05:57:39;;;;;;;5.70;2.88;;;;;;;-146.27;95.68;41506.22;5083228;28;20452;-66
2024/04/04 06:00:08;;;;;;;6.93;2.92;;;;;;;-146.27;96.47;41579.78;5093507;28;20061;-67
2024/04/04 06:02:33;;;;;;;5.18;3.25;;;;;;;-146.27;96.35;41569.84;5085915;28;20042;-66
2024/04/04 06:04:58;;;;;;;5.07;2.72;;;;;;;-146.27;95.69;41458.50;5085686;28;20028;-65
2024/04/04 06:07:24;;;;;;;6.93;3.10;;;;;;;-146.27;96.06;41466.47;5088400;28;20028;-69
2024/04/04 06:09:49;;;;;;;4.40;2.50;;;;;;;-146.27;96.13;41549.97;5087658;28;20020;-69
2024/04/04 06:12:14;;;;;;;5.78;2.53;;;;;;;-146.27;95.23;41442.59;5089953;28;20028;-68
2024/04/04 06:14:40;;;;;;;4.80;2.30;;;;;;;-146.27;95.63;41546.00;5085529;28;20078;-67
2024/04/04 06:17:05;;;;;;;7.43;3.03;;;;;;;-146.27;96.07;41530.09;5094979;28;20833;-68
2024/04/04 06:19:31;;;;;;;6.90;2.42;;;;;;;-146.27;95.59;41472.44;5089858;28;20024;-69
2024/04/04 06:21:56;;;;;;;6.90;2.42;;;;;;;-146.27;95.25;41486.34;5092341;28;20426;-68
2024/04/04 06:24:22;;;;;;;3.75;2.42;;;;;;;-146.27;96.02;41494.31;5091640;28;20464;-69
2024/04/04 06:26:49;;;;;;;6.28;3.10;;;;;;;-146.27;95.59;41470.44;5092190;28;20052;-69
2024/04/04 06:29:19;;;;;;;10.43;2.83;;;;;;;-146.27;95.25;41450.56;5089448;28;20051;-71
2024/04/04 06:31:45;;;;;;;9.68;3.40;;;;;;;-146.27;94.78;41486.34;5105988;28;20069;-68
2024/04/04 06:34:11;;;;;;;9.18;3.13;;;;;;;-146.27;94.95;41468.44;5098002;28;20425;-68
2024/04/04 06:36:36;;;;;;;13.13;3.85;;;;;;;-146.27;94.74;41454.53;5100346;28;20040;-68
2024/04/04 06:39:03;;;;;;;17.05;3.55;;;;;;;-146.27;95.32;41510.22;5089919;28;20036;-67
2024/04/04 06:41:32;;;;;;;11.32;3.20;;;;;;;-146.27;95.19;41498.28;5089828;28;20091;-67
2024/04/04 06:43:57;;;;;;;8.70;3.47;;;;;;;-146.27;95.75;41498.28;5090052;28;20024;-69
2024/04/04 06:46:23;;;;;;;7.72;3.50;;;;;;;-146.27;95.21;41470.44;5090407;28;20028;-68
2024/04/04 06:48:48;;;;;;;10.13;3.53;;;;;;;-146.27;95.10;41510.22;5072249;28;20020;-69
2024/04/04 06:51:14;;;;;;;12.00;3.58;;;;;;;-146.27;95.13;41474.41;5086842;28;20090;-69
2024/04/04 06:53:39;;;;;;;13.27;3.72;;;;;;;-146.27;95.56;41549.97;5069901;28;20020;-69
2024/04/04 06:56:05;;;;;;;10.90;3.20;;;;;;;-146.27;95.45;41454.53;5069579;28;20020;-68
2024/04/04 06:58:30;;;;;;;13.68;3.45;;;;;;;-146.27;96.44;41565.88;5089237;28;20024;-69
2024/04/04 07:00:57;;;;;;;11.80;3.00;;;;;;;-146.27;95.81;41494.31;5082947;28;20549;-69
2024/04/04 07:03:23;;;;;;;19.33;3.67;;;;;;;-146.27;95.45;41563.88;5094029;28;20020;-69
2024/04/04 07:05:48;;;;;;;16.23;4.18;;;;;;;-146.27;97.29;41607.63;5093631;28;20028;-74
2024/04/04 07:08:14;;;;;;;12.07;4.53;;;;;;;-146.27;95.84;41482.38;5093523;28;20028;-74
2024/04/04 07:10:39;;;;;;;12.30;3.28;;;;;;;-146.27;95.38;41450.56;5093210;28;20028;-75
2024/04/04 07:13:05;;;;;;;14.10;3.83;;;;;;;-146.27;96.20;41583.78;5093147;28;20085;-73
2024/04/04 07:15:31;;;;;;;10.95;4.15;;;;;;;-146.27;95.61;41448.56;5058795;28;20093;-73
2024/04/04 07:17:57;;;;;;;11.75;3.50;;;;;;;-146.27;95.25;41440.63;5073676;28;20032;-74
2024/04/04 07:20:23;;;;;;;10.07;3.78;;;;;;;-146.27;95.69;41502.25;5092952;28;20012;-75
2024/04/04 07:22:48;;;;;;;11.05;4.20;;;;;;;-146.27;96.14;41464.47;5093001;28;20031;-74
2024/04/04 07:25:15;;;;;;;12.20;3.80;;;;;;;-146.27;95.98;41492.31;5092778;28;20502;-74
2024/04/04 07:27:41;;;;;;;13.52;3.72;;;;;;;-146.27;96.87;41538.03;5092714;28;20051;-74
2024/04/04 07:30:07;;;;;;;17.60;4.32;;;;;;;-146.27;95.66;41540.03;5091306;28;20035;-73
2024/04/04 07:32:33;;;;;;;8.20;3.85;;;;;;;-146.27;95.96;41563.88;5092172;28;20086;-74
2024/04/04 07:35:01;;;;;;;19.30;4.20;;;;;;;-146.27;95.78;41538.03;5092879;28;20016;-74
2024/04/04 07:37:27;;;;;;;11.75;4.00;;;;;;;-146.27;96.39;41663.31;5092783;28;20032;-74
2024/04/04 07:39:52;;;;;;;10.95;3.40;;;;;;;-146.27;96.73;41655.34;5092786;28;20424;-74
2024/04/04 07:42:19;;;;;;;19.73;4.72;;;;;;;-146.27;97.27;41732.91;5092583;28;20027;-72
2024/04/04 07:44:45;;;;;;;19.52;4.00;;;;;;;-146.27;97.21;41736.88;5091013;28;20031;-74
2024/04/04 07:47:10;;;;;;;14.07;3.58;;;;;;;-146.27;96.47;41713.00;5092510;28;20028;-74
2024/04/04 07:49:36;;;;;;;17.33;3.25;;;;;;;-146.27;95.64;41657.34;5092597;28;20023;-74
2024/04/04 07:52:01;;;;;;;20.88;3.67;;;;;;;-146.27;96.07;41713.00;5092459;28;20066;-74
2024/04/04 07:54:27;;;;;;;11.73;2.97;;;;;;;-146.27;95.29;41677.22;5091685;28;20764;-75
2024/04/04 07:56:52;;;;;;;13.30;3.63;;;;;;;-146.27;95.61;41659.31;5091714;28;20024;-73
2024/04/04 07:59:17;;;;;;;14.82;3.72;;;;;;;-146.27;94.93;41623.53;5082448;28;20033;-74
2024/04/04 08:01:43;;;;;;;9.00;2.75;;;;;;;-146.27;95.36;41717.00;5087149;28;20083;-73
2024/04/04 08:04:08;;;;;;;15.48;3.28;;;;;;;-146.27;95.18;41722.97;5092374;28;20411;-75
2024/04/04 08:06:35;;;;;;;12.63;3.20;;;;;;;-146.27;94.82;41617.56;5074648;28;20400;-76
2024/04/04 08:09:00;;;;;;;15.32;4.00;;;;;;;-146.27;94.83;41583.78;5092197;28;20024;-74
2024/04/04 08:11:26;;;;;;;12.02;3.88;;;;;;;-146.27;94.78;41689.16;5091062;28;20471;-74
2024/04/04 08:13:52;;;;;;;12.40;3.38;;;;;;;-146.27;95.90;41673.25;5092134;28;20042;-74
2024/04/04 08:16:17;;;;;;;11.13;2.67;;;;;;;-146.27;95.30;41705.06;5077708;28;20164;-74
2024/04/04 08:18:43;;;;;;;9.50;3.20;;;;;;;-146.27;95.89;41750.78;5071681;28;20020;-75
2024/04/04 08:21:08;;;;;;;7.43;2.60;;;;;;;-146.27;96.10;41724.94;5074619;28;20028;-74
2024/04/04 08:23:34;;;;;;;12.35;2.40;;;;;;;-146.27;95.53;41740.84;5071731;28;20028;-74
2024/04/04 08:26:00;;;;;;;12.45;2.75;;;;;;;-146.27;95.64;41911.84;5071838;28;20495;-74
2024/04/04 08:28:27;;;;;;;14.75;3.03;;;;;;;-146.27;94.84;41816.41;5071421;28;20036;-74
2024/04/04 08:30:56;;;;;;;10.00;2.60;;;;;;;-146.27;94.70;41891.97;5064999;28;20028;-73
2024/04/04 08:33:24;;;;;;;9.82;2.10;;;;;;;-146.27;94.86;41806.47;5091496;28;20055;-74
2024/04/04 08:35:52;;;;;;;8.48;1.65;;;;;;;-146.27;93.73;41836.28;5083829;28;20021;-75
2024/04/04 08:38:18;;;;;;;13.77;2.85;;;;;;;-146.27;94.42;41868.09;5071520;28;20102;-72
2024/04/04 08:40:44;;;;;;;12.95;2.60;;;;;;;-146.27;94.95;41897.94;5071660;28;20484;-74
2024/04/04 08:43:11;;;;;;;16.98;3.38;;;;;;;-146.27;93.60;41814.41;5071393;28;20070;-74
2024/04/04 08:45:46;;;;;;;13.45;1.90;;;;;;;-146.27;93.93;41909.88;5071382;28;20040;-74
2024/04/04 08:48:14;;;;;;;4.95;1.33;;;;;;;-146.27;94.08;42064.97;5076078;28;20020;-74
2024/04/04 08:50:45;;;;;;;16.05;2.70;;;;;;;-146.27;92.37;41959.56;5090307;28;20610;-74
2024/04/04 08:53:12;;;;;;;9.50;1.90;;;;;;;-146.27;92.28;42049.06;5091285;28;20388;-73
2024/04/04 08:55:38;;;;;;;8.18;2.05;;;;;;;-146.27;92.17;42108.72;5091673;28;20058;-73
2024/04/04 08:58:03;;;;;;;12.98;2.08;;;;;;;-146.27;92.34;42214.13;5091489;28;20024;-72
2024/04/04 09:00:29;;;;;;;11.77;1.85;;;;;;;-146.27;90.89;42150.47;5091117;28;20586;-74
2024/04/04 09:02:54;;;;;;;8.52;1.63;;;;;;;-146.27;90.29;42202.19;5090877;28;20031;-73
2024/04/04 09:05:19;;;;;;;5.43;1.40;;;;;;;-146.27;89.62;42237.97;5083422;28;20039;-73
2024/04/04 09:07:45;;;;;;;19.20;2.08;;;;;;;-146.27;88.60;42325.47;5084555;28;20032;-72
2024/04/04 09:10:14;;;;;;;11.98;1.95;;;;;;;-146.27;87.05;42315.53;5091209;28;20020;-73
2024/04/04 09:12:40;;;;;;;15.70;1.77;;;;;;;-146.27;86.85;42395.09;5091028;28;20023;-73
2024/04/04 09:15:06;;;;;;;12.60;2.13;;;;;;;-146.27;86.10;42589.97;5090678;28;20024;-72
2024/04/04 09:17:31;;;;;;;14.27;1.98;;;;;;;-146.27;85.94;42361.28;5090389;28;20019;-74
2024/04/04 09:19:56;;;;;;;13.57;1.65;;;;;;;-146.27;83.99;42508.44;5089449;28;20032;-74
2024/04/04 09:22:24;;;;;;;20.65;1.77;;;;;;;-146.27;83.17;42442.81;5090534;28;20055;-75
2024/04/04 09:24:49;;;;;;;14.80;1.80;;;;;;;-146.27;82.36;42613.84;5090721;28;20041;-74
2024/04/04 09:27:20;;;;;;;14.43;1.75;;;;;;;-146.27;82.65;42733.19;5090583;28;20051;-74
2024/04/04 09:29:46;;;;;;;9.52;1.55;;;;;;;-146.27;81.82;42707.31;5090725;28;20024;-75
2024/04/04 09:32:18;;;;;;;24.00;2.20;;;;;;;-146.27;80.48;42768.97;5090163;28;20115;-75
2024/04/04 09:34:45;;;;;;;10.70;2.72;;;;;;;-146.27;79.93;43045.44;5088252;28;20107;-75
2024/04/04 09:37:13;;;;;;;8.55;1.77;;;;;;;-146.27;79.57;43069.31;5090704;28;20032;-76
2024/04/04 09:39:40;;;;;;;12.77;1.40;;;;;;;-146.27;80.15;43174.72;5089286;28;20023;-76
2024/04/04 09:42:07;;;;;;;9.02;1.65;;;;;;;-146.27;80.10;43025.56;5086351;28;20021;-75
2024/04/04 09:44:33;;;;;;;15.02;1.88;;;;;;;-146.27;79.20;43033.50;5078009;28;20333;-76
2024/04/04 09:47:03;;;;;;;16.05;1.42;;;;;;;-146.27;78.43;43164.78;5089676;28;20107;-74
2024/04/04 09:49:30;;;;;;;12.48;2.38;;;;;;;-146.27;78.48;43089.19;5090307;28;20059;-74
2024/04/04 09:51:57;;;;;;;10.95;1.38;;;;;;;-146.27;78.82;43099.16;5089867;28;20131;-73
2024/04/04 09:54:22;;;;;;;20.42;2.58;;;;;;;-146.27;78.49;43180.69;5089888;28;20051;-73
2024/04/04 09:56:50;;;;;;;14.88;2.00;;;;;;;-146.27;77.25;43192.63;5089688;28;20062;-75
2024/04/04 09:59:24;;;;;;;18.77;2.33;;;;;;;-146.27;76.63;43337.84;5090790;28;20032;-76
2024/04/04 10:01:49;;;;;;;11.57;1.60;;;;;;;-146.27;77.31;43304.03;5090458;28;20028;-75
2024/04/04 10:04:15;;;;;;;8.23;1.20;;;;;;;-146.27;75.97;43455.22;5090397;28;20519;-76
2024/04/04 10:06:41;;;;;;;14.05;1.30;;;;;;;-146.27;75.87;43574.56;5090363;28;20031;-76
2024/04/04 10:09:12;;;;;;;20.55;2.17;;;;;;;-146.27;75.54;43403.50;5088898;28;20024;-75
2024/04/04 10:11:37;;;;;;;12.13;1.60;;;;;;;-146.27;76.11;43160.81;5073627;28;20558;-75
2024/04/04 10:14:03;;;;;;;9.85;2.47;;;;;;;-146.27;73.40;43437.31;5078329;28;20025;-76
2024/04/04 10:16:38;;;;;;;13.95;1.88;;;;;;;-146.27;74.05;43347.78;5074006;28;20016;-75
2024/04/04 10:19:11;;;;;;;16.20;2.20;;;;;;;-146.27;71.88;43491.00;5078375;28;20159;-73
2024/04/04 10:21:37;;;;;;;11.13;1.67;;;;;;;-146.27;71.02;43678.00;5073817;28;20434;-76
2024/04/04 10:24:03;;;;;;;27.88;3.78;;;;;;;-146.27;69.90;43745.66;5088630;28;20042;-75
2024/04/04 10:26:28;;;;;;;18.58;2.47;;;;;;;-146.27;70.71;43922.72;5089273;28;20027;-75
2024/04/04 10:28:54;;;;;;;15.95;2.78;;;;;;;-146.27;70.32;44149.50;5089520;28;20024;-76
2024/04/04 10:31:19;;;;;;;19.40;2.35;;;;;;;-146.27;69.84;44000.28;5089709;28;20036;-74
2024/04/04 10:33:44;;;;;;;19.20;1.90;;;;;;;-146.27;68.79;44135.59;5090233;28;20524;-76
2024/04/04 10:36:10;;;;;;;13.27;2.35;;;;;;;-146.27;70.50;44149.50;5093682;28;20455;-75
2024/04/04 10:38:35;;;;;;;15.98;2.50;;;;;;;-146.27;70.42;44316.66;5085522;28;20063;-75
2024/04/04 10:41:01;;;;;;;16.38;2.70;;;;;;;-146.27;71.80;44091.81;5076773;28;20102;-76
2024/04/04 10:43:26;;;;;;;11.30;1.90;;;;;;;-146.27;71.46;44151.50;5076481;28;20127;-75
2024/04/04 10:45:52;;;;;;;19.67;2.60;;;;;;;-146.27;71.14;44330.56;5073769;28;20017;-75
2024/04/04 10:48:17;;;;;;;15.82;2.10;;;;;;;-146.27;70.98;44358.44;5073396;28;20051;-74
2024/04/04 10:50:43;;;;;;;16.58;2.40;;;;;;;-146.27;70.00;44135.59;5083439;28;20059;-75
2024/04/04 10:53:09;;;;;;;15.90;2.58;;;;;;;-146.27;68.67;44187.31;5093471;28;20102;-77
2024/04/04 10:55:34;;;;;;;14.48;1.90;;;;;;;-146.27;68.61;44302.72;5092678;28;20149;-75
2024/04/04 10:58:00;;;;;;;20.95;2.60;;;;;;;-146.27;68.47;44167.41;5089944;28;20034;-74
2024/04/04 11:00:32;;;;;;;16.77;2.53;;;;;;;-146.27;67.85;44368.38;5091736;28;20028;-75
2024/04/04 11:03:01;;;;;;;19.58;2.15;;;;;;;-146.27;68.41;44306.69;5092135;28;20024;-75
2024/04/04 11:05:26;;;;;;;18.33;2.30;;;;;;;-146.27;69.94;44276.84;5093826;28;20028;-75
2024/04/04 11:07:59;;;;;;;14.82;2.45;;;;;;;-146.27;68.30;44193.28;5092982;28;20023;-75